sensor_id;sensor_type;location;lat;lon;timestamp;P1;durP1;ratioP1;P2;durP2;ratioP2
53022;SDS011;38913;44.338;11.206;2023-07-31T00:01:16;5.73;;;3.40;;
53022;SDS011;38913;44.338;11.206;2023-07-31T00:03:41;4.93;;;3.23;;
53022;SDS011;38913;44.338;11.206;2023-07-31T00:06:06;4.60;;;3.40;;
53022;SDS011;38913;44.338;11.206;2023-07-31T00:08:31;3.83;;;3.00;;
53022;SDS011;38913;44.338;11.206;2023-07-31T00:10:57;5.27;;;2.90;;
53022;SDS011;38913;44.338;11.206;2023-07-31T00:13:22;4.30;;;3.00;;
53022;SDS011;38913;44.338;11.206;2023-07-31T00:15:47;3.58;;;2.92;;
53022;SDS011;38913;44.338;11.206;2023-07-31T00:18:12;4.57;;;3.40;;
53022;SDS011;38913;44.338;11.206;2023-07-31T00:20:38;4.82;;;3.42;;
53022;SDS011;38913;44.338;11.206;2023-07-31T00:23:03;3.73;;;3.30;;
53022;SDS011;38913;44.338;11.206;2023-07-31T00:25:28;4.07;;;3.30;;
53022;SDS011;38913;44.338;11.206;2023-07-31T00:27:53;4.90;;;3.30;;
53022;SDS011;38913;44.338;11.206;2023-07-31T00:30:19;3.47;;;3.10;;
53022;SDS011;38913;44.338;11.206;2023-07-31T00:32:44;5.55;;;3.10;;
53022;SDS011;38913;44.338;11.206;2023-07-31T00:35:09;6.37;;;3.60;;
53022;SDS011;38913;44.338;11.206;2023-07-31T00:37:34;6.23;;;3.60;;
53022;SDS011;38913;44.338;11.206;2023-07-31T00:40:00;5.00;;;3.37;;
53022;SDS011;38913;44.338;11.206;2023-07-31T00:42:25;6.07;;;3.33;;
53022;SDS011;38913;44.338;11.206;2023-07-31T00:44:50;3.13;;;2.80;;
53022;SDS011;38913;44.338;11.206;2023-07-31T00:47:16;4.33;;;3.20;;
53022;SDS011;38913;44.338;11.206;2023-07-31T00:49:41;4.33;;;3.27;;
53022;SDS011;38913;44.338;11.206;2023-07-31T00:52:06;6.40;;;3.67;;
53022;SDS011;38913;44.338;11.206;2023-07-31T00:54:32;4.65;;;3.58;;
53022;SDS011;38913;44.338;11.206;2023-07-31T00:56:57;4.22;;;3.17;;
53022;SDS011;38913;44.338;11.206;2023-07-31T00:59:23;5.25;;;3.50;;
53022;SDS011;38913;44.338;11.206;2023-07-31T01:01:48;5.13;;;3.50;;
53022;SDS011;38913;44.338;11.206;2023-07-31T01:04:14;4.57;;;3.55;;
53022;SDS011;38913;44.338;11.206;2023-07-31T01:09:11;5.57;;;3.17;;
53022;SDS011;38913;44.338;11.206;2023-07-31T01:11:43;3.92;;;3.08;;
53022;SDS011;38913;44.338;11.206;2023-07-31T01:14:10;3.30;;;3.00;;
53022;SDS011;38913;44.338;11.206;2023-07-31T01:16:36;4.78;;;3.45;;
53022;SDS011;38913;44.338;11.206;2023-07-31T01:19:01;4.23;;;3.13;;
53022;SDS011;38913;44.338;11.206;2023-07-31T01:26:45;3.75;;;2.80;;
53022;SDS011;38913;44.338;11.206;2023-07-31T01:31:53;4.25;;;3.13;;
53022;SDS011;38913;44.338;11.206;2023-07-31T01:34:18;4.22;;;3.35;;
53022;SDS011;38913;44.338;11.206;2023-07-31T01:36:44;4.20;;;3.35;;
53022;SDS011;38913;44.338;11.206;2023-07-31T01:39:09;4.50;;;3.10;;
53022;SDS011;38913;44.338;11.206;2023-07-31T01:41:34;4.70;;;3.40;;
53022;SDS011;38913;44.338;11.206;2023-07-31T01:43:59;4.30;;;3.40;;
53022;SDS011;38913;44.338;11.206;2023-07-31T01:46:25;5.22;;;3.47;;
53022;SDS011;38913;44.338;11.206;2023-07-31T01:48:50;5.03;;;3.37;;
53022;SDS011;38913;44.338;11.206;2023-07-31T01:51:15;4.47;;;3.27;;
53022;SDS011;38913;44.338;11.206;2023-07-31T01:53:41;4.50;;;3.73;;
53022;SDS011;38913;44.338;11.206;2023-07-31T01:56:06;6.43;;;3.77;;
53022;SDS011;38913;44.338;11.206;2023-07-31T01:58:31;4.37;;;3.40;;
53022;SDS011;38913;44.338;11.206;2023-07-31T02:00:56;4.03;;;3.00;;
53022;SDS011;38913;44.338;11.206;2023-07-31T02:03:22;4.13;;;3.28;;
53022;SDS011;38913;44.338;11.206;2023-07-31T02:05:47;5.22;;;3.83;;
53022;SDS011;38913;44.338;11.206;2023-07-31T02:08:13;4.53;;;3.10;;
53022;SDS011;38913;44.338;11.206;2023-07-31T02:10:38;5.43;;;3.58;;
53022;SDS011;38913;44.338;11.206;2023-07-31T02:13:04;4.68;;;3.22;;
53022;SDS011;38913;44.338;11.206;2023-07-31T02:15:29;5.10;;;3.55;;
53022;SDS011;38913;44.338;11.206;2023-07-31T02:17:55;5.57;;;3.40;;
53022;SDS011;38913;44.338;11.206;2023-07-31T02:20:20;4.27;;;3.53;;
53022;SDS011;38913;44.338;11.206;2023-07-31T02:22:45;4.33;;;3.10;;
53022;SDS011;38913;44.338;11.206;2023-07-31T02:25:10;4.63;;;3.10;;
53022;SDS011;38913;44.338;11.206;2023-07-31T02:27:36;5.03;;;3.47;;
53022;SDS011;38913;44.338;11.206;2023-07-31T02:30:01;3.70;;;3.23;;
53022;SDS011;38913;44.338;11.206;2023-07-31T02:32:26;5.80;;;3.27;;
53022;SDS011;38913;44.338;11.206;2023-07-31T02:34:51;4.18;;;3.22;;
53022;SDS011;38913;44.338;11.206;2023-07-31T02:37:17;6.33;;;3.57;;
53022;SDS011;38913;44.338;11.206;2023-07-31T02:39:42;6.10;;;3.17;;
53022;SDS011;38913;44.338;11.206;2023-07-31T02:42:07;5.00;;;3.65;;
53022;SDS011;38913;44.338;11.206;2023-07-31T02:44:33;3.63;;;2.95;;
53022;SDS011;38913;44.338;11.206;2023-07-31T02:46:58;5.40;;;3.47;;
53022;SDS011;38913;44.338;11.206;2023-07-31T02:49:23;4.63;;;3.40;;
53022;SDS011;38913;44.338;11.206;2023-07-31T02:51:48;4.23;;;3.30;;
53022;SDS011;38913;44.338;11.206;2023-07-31T02:54:14;3.93;;;3.20;;
53022;SDS011;38913;44.338;11.206;2023-07-31T02:56:39;5.53;;;3.33;;
53022;SDS011;38913;44.338;11.206;2023-07-31T02:59:04;3.80;;;3.43;;
53022;SDS011;38913;44.338;11.206;2023-07-31T03:01:29;4.50;;;3.20;;
53022;SDS011;38913;44.338;11.206;2023-07-31T03:03:55;4.63;;;3.25;;
53022;SDS011;38913;44.338;11.206;2023-07-31T03:06:21;6.30;;;3.13;;
53022;SDS011;38913;44.338;11.206;2023-07-31T03:08:46;3.47;;;3.17;;
53022;SDS011;38913;44.338;11.206;2023-07-31T03:11:11;6.87;;;3.40;;
53022;SDS011;38913;44.338;11.206;2023-07-31T03:13:36;4.73;;;3.07;;
53022;SDS011;38913;44.338;11.206;2023-07-31T03:16:01;5.33;;;3.30;;
53022;SDS011;38913;44.338;11.206;2023-07-31T03:18:27;5.00;;;3.30;;
53022;SDS011;38913;44.338;11.206;2023-07-31T03:20:52;4.47;;;3.40;;
53022;SDS011;38913;44.338;11.206;2023-07-31T03:23:17;3.97;;;3.30;;
53022;SDS011;38913;44.338;11.206;2023-07-31T03:25:54;4.07;;;3.13;;
53022;SDS011;38913;44.338;11.206;2023-07-31T03:28:20;5.18;;;3.38;;
53022;SDS011;38913;44.338;11.206;2023-07-31T03:30:45;5.27;;;3.70;;
53022;SDS011;38913;44.338;11.206;2023-07-31T03:33:10;5.00;;;3.67;;
53022;SDS011;38913;44.338;11.206;2023-07-31T03:35:36;5.03;;;3.57;;
53022;SDS011;38913;44.338;11.206;2023-07-31T03:38:01;4.00;;;3.15;;
53022;SDS011;38913;44.338;11.206;2023-07-31T03:40:26;4.77;;;3.23;;
53022;SDS011;38913;44.338;11.206;2023-07-31T03:42:51;4.43;;;3.27;;
53022;SDS011;38913;44.338;11.206;2023-07-31T03:45:17;4.57;;;3.50;;
53022;SDS011;38913;44.338;11.206;2023-07-31T03:47:42;4.00;;;3.60;;
53022;SDS011;38913;44.338;11.206;2023-07-31T03:50:07;4.43;;;3.63;;
53022;SDS011;38913;44.338;11.206;2023-07-31T03:52:32;8.50;;;3.70;;
53022;SDS011;38913;44.338;11.206;2023-07-31T03:54:58;5.07;;;3.50;;
53022;SDS011;38913;44.338;11.206;2023-07-31T03:57:23;4.33;;;3.60;;
53022;SDS011;38913;44.338;11.206;2023-07-31T03:59:48;3.90;;;3.40;;
53022;SDS011;38913;44.338;11.206;2023-07-31T04:02:32;4.33;;;3.50;;
53022;SDS011;38913;44.338;11.206;2023-07-31T04:04:57;3.85;;;3.25;;
53022;SDS011;38913;44.338;11.206;2023-07-31T04:07:22;6.57;;;3.50;;
53022;SDS011;38913;44.338;11.206;2023-07-31T04:09:48;5.13;;;3.33;;
53022;SDS011;38913;44.338;11.206;2023-07-31T04:12:13;4.37;;;3.60;;
53022;SDS011;38913;44.338;11.206;2023-07-31T04:14:38;5.77;;;3.63;;
53022;SDS011;38913;44.338;11.206;2023-07-31T04:17:03;4.27;;;3.27;;
53022;SDS011;38913;44.338;11.206;2023-07-31T04:19:28;3.97;;;3.58;;
53022;SDS011;38913;44.338;11.206;2023-07-31T04:21:54;5.60;;;3.63;;
53022;SDS011;38913;44.338;11.206;2023-07-31T04:24:19;4.43;;;3.70;;
53022;SDS011;38913;44.338;11.206;2023-07-31T04:26:49;4.25;;;3.38;;
53022;SDS011;38913;44.338;11.206;2023-07-31T04:29:14;6.00;;;3.78;;
53022;SDS011;38913;44.338;11.206;2023-07-31T04:31:41;3.85;;;3.38;;
53022;SDS011;38913;44.338;11.206;2023-07-31T04:34:06;4.13;;;3.60;;
53022;SDS011;38913;44.338;11.206;2023-07-31T04:36:32;5.18;;;3.70;;
53022;SDS011;38913;44.338;11.206;2023-07-31T04:38:58;5.55;;;3.83;;
53022;SDS011;38913;44.338;11.206;2023-07-31T04:41:23;3.77;;;3.37;;
53022;SDS011;38913;44.338;11.206;2023-07-31T04:43:48;5.13;;;3.67;;
53022;SDS011;38913;44.338;11.206;2023-07-31T04:46:13;4.67;;;3.77;;
53022;SDS011;38913;44.338;11.206;2023-07-31T04:48:39;5.00;;;3.77;;
53022;SDS011;38913;44.338;11.206;2023-07-31T04:51:04;4.40;;;3.30;;
53022;SDS011;38913;44.338;11.206;2023-07-31T04:53:29;5.83;;;4.30;;
53022;SDS011;38913;44.338;11.206;2023-07-31T04:55:54;5.90;;;3.63;;
53022;SDS011;38913;44.338;11.206;2023-07-31T04:58:19;5.13;;;3.53;;
53022;SDS011;38913;44.338;11.206;2023-07-31T05:00:45;7.07;;;4.10;;
53022;SDS011;38913;44.338;11.206;2023-07-31T05:03:10;4.13;;;3.60;;
53022;SDS011;38913;44.338;11.206;2023-07-31T05:05:36;4.95;;;3.33;;
53022;SDS011;38913;44.338;11.206;2023-07-31T05:08:01;5.00;;;3.47;;
53022;SDS011;38913;44.338;11.206;2023-07-31T05:10:27;4.83;;;3.47;;
53022;SDS011;38913;44.338;11.206;2023-07-31T05:12:52;5.67;;;3.30;;
53022;SDS011;38913;44.338;11.206;2023-07-31T05:15:17;3.97;;;3.43;;
53022;SDS011;38913;44.338;11.206;2023-07-31T05:17:42;4.97;;;2.97;;
53022;SDS011;38913;44.338;11.206;2023-07-31T05:20:08;4.05;;;3.20;;
53022;SDS011;38913;44.338;11.206;2023-07-31T05:22:34;3.40;;;3.10;;
53022;SDS011;38913;44.338;11.206;2023-07-31T05:24:59;4.47;;;2.80;;
53022;SDS011;38913;44.338;11.206;2023-07-31T05:27:24;46.45;;;7.47;;
53022;SDS011;38913;44.338;11.206;2023-07-31T05:29:50;4.17;;;2.90;;
53022;SDS011;38913;44.338;11.206;2023-07-31T05:32:15;6.10;;;3.00;;
53022;SDS011;38913;44.338;11.206;2023-07-31T05:34:40;6.83;;;3.07;;
53022;SDS011;38913;44.338;11.206;2023-07-31T05:37:06;4.10;;;3.00;;
53022;SDS011;38913;44.338;11.206;2023-07-31T05:39:31;3.97;;;2.80;;
53022;SDS011;38913;44.338;11.206;2023-07-31T05:41:56;6.95;;;3.20;;
53022;SDS011;38913;44.338;11.206;2023-07-31T05:44:21;4.93;;;3.57;;
53022;SDS011;38913;44.338;11.206;2023-07-31T05:46:47;9.38;;;3.35;;
53022;SDS011;38913;44.338;11.206;2023-07-31T05:49:12;6.88;;;3.15;;
53022;SDS011;38913;44.338;11.206;2023-07-31T05:51:37;6.43;;;3.30;;
53022;SDS011;38913;44.338;11.206;2023-07-31T05:54:03;8.23;;;3.40;;
53022;SDS011;38913;44.338;11.206;2023-07-31T05:56:28;6.57;;;3.40;;
53022;SDS011;38913;44.338;11.206;2023-07-31T05:58:53;6.03;;;3.10;;
53022;SDS011;38913;44.338;11.206;2023-07-31T06:01:18;4.83;;;3.20;;
53022;SDS011;38913;44.338;11.206;2023-07-31T06:03:46;5.57;;;2.83;;
53022;SDS011;38913;44.338;11.206;2023-07-31T06:06:11;6.53;;;3.40;;
53022;SDS011;38913;44.338;11.206;2023-07-31T06:08:36;5.87;;;3.33;;
53022;SDS011;38913;44.338;11.206;2023-07-31T06:11:02;5.75;;;3.00;;
53022;SDS011;38913;44.338;11.206;2023-07-31T06:13:27;3.30;;;3.00;;
53022;SDS011;38913;44.338;11.206;2023-07-31T06:15:52;5.43;;;3.00;;
53022;SDS011;38913;44.338;11.206;2023-07-31T06:18:17;6.40;;;2.97;;
53022;SDS011;38913;44.338;11.206;2023-07-31T06:20:43;3.40;;;3.10;;
53022;SDS011;38913;44.338;11.206;2023-07-31T06:23:08;4.90;;;3.03;;
53022;SDS011;38913;44.338;11.206;2023-07-31T06:25:33;4.87;;;3.20;;
53022;SDS011;38913;44.338;11.206;2023-07-31T06:27:59;3.53;;;2.80;;
53022;SDS011;38913;44.338;11.206;2023-07-31T06:30:24;3.90;;;3.03;;
53022;SDS011;38913;44.338;11.206;2023-07-31T06:32:49;3.53;;;3.07;;
53022;SDS011;38913;44.338;11.206;2023-07-31T06:35:14;4.13;;;2.80;;
53022;SDS011;38913;44.338;11.206;2023-07-31T06:37:40;3.67;;;2.75;;
53022;SDS011;38913;44.338;11.206;2023-07-31T06:40:06;5.53;;;3.08;;
53022;SDS011;38913;44.338;11.206;2023-07-31T06:42:32;5.45;;;3.15;;
53022;SDS011;38913;44.338;11.206;2023-07-31T06:44:58;3.50;;;2.77;;
53022;SDS011;38913;44.338;11.206;2023-07-31T06:47:23;3.23;;;2.93;;
53022;SDS011;38913;44.338;11.206;2023-07-31T06:49:48;4.17;;;2.97;;
53022;SDS011;38913;44.338;11.206;2023-07-31T06:52:13;4.00;;;2.90;;
53022;SDS011;38913;44.338;11.206;2023-07-31T06:54:38;5.57;;;3.00;;
53022;SDS011;38913;44.338;11.206;2023-07-31T06:57:04;4.70;;;2.83;;
53022;SDS011;38913;44.338;11.206;2023-07-31T06:59:29;3.70;;;2.80;;
53022;SDS011;38913;44.338;11.206;2023-07-31T07:01:54;6.27;;;2.63;;
53022;SDS011;38913;44.338;11.206;2023-07-31T07:04:20;3.72;;;3.10;;
53022;SDS011;38913;44.338;11.206;2023-07-31T07:06:45;3.43;;;2.80;;
53022;SDS011;38913;44.338;11.206;2023-07-31T07:09:10;4.23;;;2.80;;
53022;SDS011;38913;44.338;11.206;2023-07-31T07:11:35;5.20;;;3.30;;
53022;SDS011;38913;44.338;11.206;2023-07-31T07:14:02;4.30;;;2.63;;
53022;SDS011;38913;44.338;11.206;2023-07-31T07:16:28;8.77;;;3.40;;
53022;SDS011;38913;44.338;11.206;2023-07-31T07:18:53;4.88;;;2.90;;
53022;SDS011;38913;44.338;11.206;2023-07-31T07:21:18;6.57;;;2.87;;
53022;SDS011;38913;44.338;11.206;2023-07-31T07:23:43;4.17;;;3.20;;
53022;SDS011;38913;44.338;11.206;2023-07-31T07:26:09;5.17;;;3.20;;
53022;SDS011;38913;44.338;11.206;2023-07-31T07:28:34;4.60;;;2.60;;
53022;SDS011;38913;44.338;11.206;2023-07-31T07:30:59;4.70;;;2.80;;
53022;SDS011;38913;44.338;11.206;2023-07-31T07:33:24;3.78;;;2.70;;
53022;SDS011;38913;44.338;11.206;2023-07-31T07:35:50;3.87;;;2.70;;
53022;SDS011;38913;44.338;11.206;2023-07-31T07:38:15;4.43;;;2.90;;
53022;SDS011;38913;44.338;11.206;2023-07-31T07:40:40;3.30;;;2.80;;
53022;SDS011;38913;44.338;11.206;2023-07-31T07:43:06;4.25;;;2.90;;
53022;SDS011;38913;44.338;11.206;2023-07-31T07:45:31;3.80;;;2.85;;
53022;SDS011;38913;44.338;11.206;2023-07-31T07:47:56;6.43;;;3.23;;
53022;SDS011;38913;44.338;11.206;2023-07-31T07:50:21;3.30;;;3.00;;
53022;SDS011;38913;44.338;11.206;2023-07-31T07:52:47;3.77;;;2.93;;
53022;SDS011;38913;44.338;11.206;2023-07-31T07:55:12;5.67;;;2.97;;
53022;SDS011;38913;44.338;11.206;2023-07-31T07:57:37;5.43;;;3.10;;
53022;SDS011;38913;44.338;11.206;2023-07-31T08:00:03;4.13;;;2.80;;
53022;SDS011;38913;44.338;11.206;2023-07-31T08:02:28;5.60;;;2.88;;
53022;SDS011;38913;44.338;11.206;2023-07-31T08:04:53;4.40;;;3.03;;
53022;SDS011;38913;44.338;11.206;2023-07-31T08:07:18;3.90;;;2.70;;
53022;SDS011;38913;44.338;11.206;2023-07-31T08:09:44;7.13;;;3.77;;
53022;SDS011;38913;44.338;11.206;2023-07-31T08:12:09;4.73;;;2.50;;
53022;SDS011;38913;44.338;11.206;2023-07-31T08:14:34;4.60;;;2.93;;
53022;SDS011;38913;44.338;11.206;2023-07-31T08:17:02;4.30;;;2.75;;
53022;SDS011;38913;44.338;11.206;2023-07-31T08:19:27;3.90;;;2.75;;
53022;SDS011;38913;44.338;11.206;2023-07-31T08:21:52;4.03;;;2.70;;
53022;SDS011;38913;44.338;11.206;2023-07-31T08:24:17;4.90;;;2.90;;
53022;SDS011;38913;44.338;11.206;2023-07-31T08:26:43;4.43;;;2.80;;
53022;SDS011;38913;44.338;11.206;2023-07-31T08:29:09;4.38;;;3.00;;
53022;SDS011;38913;44.338;11.206;2023-07-31T08:31:34;6.60;;;3.43;;
53022;SDS011;38913;44.338;11.206;2023-07-31T08:33:59;5.10;;;3.15;;
53022;SDS011;38913;44.338;11.206;2023-07-31T08:36:25;5.35;;;3.17;;
53022;SDS011;38913;44.338;11.206;2023-07-31T08:38:50;6.78;;;3.00;;
53022;SDS011;38913;44.338;11.206;2023-07-31T08:41:16;5.22;;;2.75;;
53022;SDS011;38913;44.338;11.206;2023-07-31T08:43:45;4.13;;;2.80;;
53022;SDS011;38913;44.338;11.206;2023-07-31T08:46:11;4.20;;;3.00;;
53022;SDS011;38913;44.338;11.206;2023-07-31T08:48:37;4.30;;;2.97;;
53022;SDS011;38913;44.338;11.206;2023-07-31T08:51:03;5.47;;;2.85;;
53022;SDS011;38913;44.338;11.206;2023-07-31T08:53:28;3.25;;;2.75;;
53022;SDS011;38913;44.338;11.206;2023-07-31T08:55:53;5.40;;;2.70;;
53022;SDS011;38913;44.338;11.206;2023-07-31T08:58:19;3.55;;;2.58;;
53022;SDS011;38913;44.338;11.206;2023-07-31T09:00:45;4.20;;;2.70;;
53022;SDS011;38913;44.338;11.206;2023-07-31T09:03:14;3.58;;;2.70;;
53022;SDS011;38913;44.338;11.206;2023-07-31T09:05:41;4.18;;;2.88;;
53022;SDS011;38913;44.338;11.206;2023-07-31T09:08:07;5.13;;;2.90;;
53022;SDS011;38913;44.338;11.206;2023-07-31T09:10:32;3.78;;;2.70;;
53022;SDS011;38913;44.338;11.206;2023-07-31T09:12:58;4.93;;;2.70;;
53022;SDS011;38913;44.338;11.206;2023-07-31T09:15:23;3.63;;;2.70;;
53022;SDS011;38913;44.338;11.206;2023-07-31T09:17:48;4.32;;;2.45;;
53022;SDS011;38913;44.338;11.206;2023-07-31T09:20:23;3.40;;;2.35;;
53022;SDS011;38913;44.338;11.206;2023-07-31T09:22:49;4.10;;;2.60;;
53022;SDS011;38913;44.338;11.206;2023-07-31T09:25:17;4.72;;;2.38;;
53022;SDS011;38913;44.338;11.206;2023-07-31T09:30:11;3.47;;;2.30;;
53022;SDS011;38913;44.338;11.206;2023-07-31T09:32:36;4.17;;;2.40;;
53022;SDS011;38913;44.338;11.206;2023-07-31T09:35:12;4.35;;;2.58;;
53022;SDS011;38913;44.338;11.206;2023-07-31T09:37:38;3.22;;;2.35;;
53022;SDS011;38913;44.338;11.206;2023-07-31T09:40:03;3.47;;;2.67;;
53022;SDS011;38913;44.338;11.206;2023-07-31T09:42:29;3.90;;;2.30;;
53022;SDS011;38913;44.338;11.206;2023-07-31T09:44:56;3.40;;;2.22;;
53022;SDS011;38913;44.338;11.206;2023-07-31T09:47:31;3.50;;;2.53;;
53022;SDS011;38913;44.338;11.206;2023-07-31T09:49:57;3.17;;;2.23;;
53022;SDS011;38913;44.338;11.206;2023-07-31T09:52:22;4.38;;;2.70;;
53022;SDS011;38913;44.338;11.206;2023-07-31T09:54:47;3.47;;;2.23;;
53022;SDS011;38913;44.338;11.206;2023-07-31T09:57:13;4.22;;;2.30;;
53022;SDS011;38913;44.338;11.206;2023-07-31T09:59:41;2.97;;;2.30;;
53022;SDS011;38913;44.338;11.206;2023-07-31T10:02:08;3.07;;;2.23;;
53022;SDS011;38913;44.338;11.206;2023-07-31T10:04:34;12.30;;;2.70;;
53022;SDS011;38913;44.338;11.206;2023-07-31T10:06:59;7.00;;;2.80;;
53022;SDS011;38913;44.338;11.206;2023-07-31T10:09:26;4.15;;;2.42;;
53022;SDS011;38913;44.338;11.206;2023-07-31T10:11:56;3.10;;;2.10;;
53022;SDS011;38913;44.338;11.206;2023-07-31T10:14:24;2.65;;;2.20;;
53022;SDS011;38913;44.338;11.206;2023-07-31T10:16:51;3.15;;;2.30;;
53022;SDS011;38913;44.338;11.206;2023-07-31T10:19:17;2.67;;;2.40;;
53022;SDS011;38913;44.338;11.206;2023-07-31T10:21:43;4.55;;;2.40;;
53022;SDS011;38913;44.338;11.206;2023-07-31T10:24:08;3.15;;;2.30;;
53022;SDS011;38913;44.338;11.206;2023-07-31T10:26:34;2.65;;;2.15;;
53022;SDS011;38913;44.338;11.206;2023-07-31T10:29:00;2.60;;;2.40;;
53022;SDS011;38913;44.338;11.206;2023-07-31T10:31:26;2.30;;;2.10;;
53022;SDS011;38913;44.338;11.206;2023-07-31T10:33:52;3.50;;;2.40;;
53022;SDS011;38913;44.338;11.206;2023-07-31T10:36:18;3.72;;;2.58;;
53022;SDS011;38913;44.338;11.206;2023-07-31T10:38:44;2.53;;;2.10;;
53022;SDS011;38913;44.338;11.206;2023-07-31T10:41:09;3.43;;;2.23;;
53022;SDS011;38913;44.338;11.206;2023-07-31T10:43:36;4.40;;;2.22;;
53022;SDS011;38913;44.338;11.206;2023-07-31T10:46:06;3.17;;;2.25;;
53022;SDS011;38913;44.338;11.206;2023-07-31T10:48:33;4.05;;;2.35;;
53022;SDS011;38913;44.338;11.206;2023-07-31T10:50:58;2.95;;;2.25;;
53022;SDS011;38913;44.338;11.206;2023-07-31T10:53:24;2.92;;;2.22;;
53022;SDS011;38913;44.338;11.206;2023-07-31T10:55:50;3.85;;;2.50;;
53022;SDS011;38913;44.338;11.206;2023-07-31T10:58:18;2.95;;;2.20;;
53022;SDS011;38913;44.338;11.206;2023-07-31T11:00:43;2.42;;;1.90;;
53022;SDS011;38913;44.338;11.206;2023-07-31T11:03:13;3.97;;;2.40;;
53022;SDS011;38913;44.338;11.206;2023-07-31T11:08:14;2.55;;;2.10;;
53022;SDS011;38913;44.338;11.206;2023-07-31T11:10:40;3.30;;;2.13;;
53022;SDS011;38913;44.338;11.206;2023-07-31T11:13:05;4.82;;;2.35;;
53022;SDS011;38913;44.338;11.206;2023-07-31T11:15:30;3.53;;;2.23;;
53022;SDS011;38913;44.338;11.206;2023-07-31T11:17:56;2.60;;;2.40;;
53022;SDS011;38913;44.338;11.206;2023-07-31T11:20:23;4.63;;;2.40;;
53022;SDS011;38913;44.338;11.206;2023-07-31T11:22:49;2.72;;;2.53;;
53022;SDS011;38913;44.338;11.206;2023-07-31T11:25:14;4.00;;;2.50;;
53022;SDS011;38913;44.338;11.206;2023-07-31T11:27:39;3.13;;;2.83;;
53022;SDS011;38913;44.338;11.206;2023-07-31T11:30:08;2.88;;;2.20;;
53022;SDS011;38913;44.338;11.206;2023-07-31T11:32:35;5.03;;;2.30;;
53022;SDS011;38913;44.338;11.206;2023-07-31T11:35:01;3.15;;;2.03;;
53022;SDS011;38913;44.338;11.206;2023-07-31T11:37:38;3.63;;;2.50;;
53022;SDS011;38913;44.338;11.206;2023-07-31T11:40:03;3.25;;;2.30;;
53022;SDS011;38913;44.338;11.206;2023-07-31T11:42:29;2.45;;;2.10;;
53022;SDS011;38913;44.338;11.206;2023-07-31T11:44:54;2.75;;;2.05;;
53022;SDS011;38913;44.338;11.206;2023-07-31T11:47:19;5.43;;;2.42;;
53022;SDS011;38913;44.338;11.206;2023-07-31T11:49:44;2.40;;;2.20;;
53022;SDS011;38913;44.338;11.206;2023-07-31T11:52:10;2.33;;;2.13;;
53022;SDS011;38913;44.338;11.206;2023-07-31T11:54:36;3.10;;;2.15;;
53022;SDS011;38913;44.338;11.206;2023-07-31T11:57:02;3.30;;;2.42;;
53022;SDS011;38913;44.338;11.206;2023-07-31T11:59:27;5.70;;;2.67;;
53022;SDS011;38913;44.338;11.206;2023-07-31T12:01:53;2.95;;;2.40;;
53022;SDS011;38913;44.338;11.206;2023-07-31T12:04:19;2.97;;;2.67;;
53022;SDS011;38913;44.338;11.206;2023-07-31T12:06:44;3.22;;;2.17;;
53022;SDS011;38913;44.338;11.206;2023-07-31T12:09:10;4.68;;;2.85;;
53022;SDS011;38913;44.338;11.206;2023-07-31T12:11:44;3.30;;;2.50;;
53022;SDS011;38913;44.338;11.206;2023-07-31T12:16:35;3.97;;;2.58;;
53022;SDS011;38913;44.338;11.206;2023-07-31T12:19:00;2.63;;;2.40;;
53022;SDS011;38913;44.338;11.206;2023-07-31T12:21:26;2.63;;;2.40;;
53022;SDS011;38913;44.338;11.206;2023-07-31T12:23:52;3.70;;;2.60;;
53022;SDS011;38913;44.338;11.206;2023-07-31T12:26:18;3.58;;;2.45;;
53022;SDS011;38913;44.338;11.206;2023-07-31T12:28:48;3.28;;;2.40;;
53022;SDS011;38913;44.338;11.206;2023-07-31T12:31:17;3.53;;;2.30;;
53022;SDS011;38913;44.338;11.206;2023-07-31T12:33:44;4.25;;;2.70;;
53022;SDS011;38913;44.338;11.206;2023-07-31T12:36:14;2.83;;;2.30;;
53022;SDS011;38913;44.338;11.206;2023-07-31T12:38:40;3.58;;;2.45;;
53022;SDS011;38913;44.338;11.206;2023-07-31T12:41:05;3.33;;;2.50;;
53022;SDS011;38913;44.338;11.206;2023-07-31T12:43:34;3.38;;;2.55;;
53022;SDS011;38913;44.338;11.206;2023-07-31T12:45:59;3.13;;;2.28;;
53022;SDS011;38913;44.338;11.206;2023-07-31T12:48:25;3.08;;;2.38;;
53022;SDS011;38913;44.338;11.206;2023-07-31T12:50:50;2.83;;;2.58;;
53022;SDS011;38913;44.338;11.206;2023-07-31T12:53:15;3.90;;;2.70;;
53022;SDS011;38913;44.338;11.206;2023-07-31T12:55:41;2.40;;;2.15;;
53022;SDS011;38913;44.338;11.206;2023-07-31T12:58:06;2.95;;;2.50;;
53022;SDS011;38913;44.338;11.206;2023-07-31T13:00:31;3.63;;;2.40;;
53022;SDS011;38913;44.338;11.206;2023-07-31T13:02:57;3.55;;;2.40;;
53022;SDS011;38913;44.338;11.206;2023-07-31T13:05:22;3.65;;;2.78;;
53022;SDS011;38913;44.338;11.206;2023-07-31T13:07:47;3.27;;;2.40;;
53022;SDS011;38913;44.338;11.206;2023-07-31T13:10:13;2.95;;;2.20;;
53022;SDS011;38913;44.338;11.206;2023-07-31T13:12:38;3.60;;;2.40;;
53022;SDS011;38913;44.338;11.206;2023-07-31T13:15:04;3.08;;;2.17;;
53022;SDS011;38913;44.338;11.206;2023-07-31T13:17:29;3.55;;;2.40;;
53022;SDS011;38913;44.338;11.206;2023-07-31T13:19:54;2.97;;;2.30;;
53022;SDS011;38913;44.338;11.206;2023-07-31T13:22:20;2.50;;;2.03;;
53022;SDS011;38913;44.338;11.206;2023-07-31T13:24:45;2.40;;;2.20;;
53022;SDS011;38913;44.338;11.206;2023-07-31T13:27:10;2.72;;;2.50;;
53022;SDS011;38913;44.338;11.206;2023-07-31T13:29:36;2.83;;;2.17;;
53022;SDS011;38913;44.338;11.206;2023-07-31T13:32:01;2.42;;;2.20;;
53022;SDS011;38913;44.338;11.206;2023-07-31T13:34:26;2.63;;;2.38;;
53022;SDS011;38913;44.338;11.206;2023-07-31T13:36:53;2.80;;;2.40;;
53022;SDS011;38913;44.338;11.206;2023-07-31T13:39:19;3.22;;;2.47;;
53022;SDS011;38913;44.338;11.206;2023-07-31T13:41:44;3.20;;;2.30;;
53022;SDS011;38913;44.338;11.206;2023-07-31T13:44:09;3.17;;;2.10;;
53022;SDS011;38913;44.338;11.206;2023-07-31T13:46:34;2.87;;;2.47;;
53022;SDS011;38913;44.338;11.206;2023-07-31T13:48:59;2.50;;;2.20;;
53022;SDS011;38913;44.338;11.206;2023-07-31T13:51:26;3.05;;;2.30;;
53022;SDS011;38913;44.338;11.206;2023-07-31T13:53:52;3.20;;;2.22;;
53022;SDS011;38913;44.338;11.206;2023-07-31T13:56:18;4.57;;;2.50;;
53022;SDS011;38913;44.338;11.206;2023-07-31T13:58:43;3.63;;;2.13;;
53022;SDS011;38913;44.338;11.206;2023-07-31T14:01:08;3.85;;;2.60;;
53022;SDS011;38913;44.338;11.206;2023-07-31T14:03:34;2.67;;;2.38;;
53022;SDS011;38913;44.338;11.206;2023-07-31T14:05:59;5.00;;;2.80;;
53022;SDS011;38913;44.338;11.206;2023-07-31T14:08:24;2.53;;;2.30;;
53022;SDS011;38913;44.338;11.206;2023-07-31T14:10:49;2.67;;;2.40;;
53022;SDS011;38913;44.338;11.206;2023-07-31T14:13:15;3.00;;;2.67;;
53022;SDS011;38913;44.338;11.206;2023-07-31T14:15:43;2.60;;;2.30;;
53022;SDS011;38913;44.338;11.206;2023-07-31T14:18:08;2.80;;;2.20;;
53022;SDS011;38913;44.338;11.206;2023-07-31T14:20:33;3.05;;;2.30;;
53022;SDS011;38913;44.338;11.206;2023-07-31T14:22:59;2.60;;;2.20;;
53022;SDS011;38913;44.338;11.206;2023-07-31T14:25:24;2.65;;;2.30;;
53022;SDS011;38913;44.338;11.206;2023-07-31T14:27:49;3.00;;;2.50;;
53022;SDS011;38913;44.338;11.206;2023-07-31T14:30:15;3.10;;;2.40;;
53022;SDS011;38913;44.338;11.206;2023-07-31T14:32:41;2.47;;;2.28;;
53022;SDS011;38913;44.338;11.206;2023-07-31T14:35:06;4.43;;;2.65;;
53022;SDS011;38913;44.338;11.206;2023-07-31T14:37:41;2.63;;;2.30;;
53022;SDS011;38913;44.338;11.206;2023-07-31T14:40:08;3.33;;;2.65;;
53022;SDS011;38913;44.338;11.206;2023-07-31T14:42:34;3.03;;;2.35;;